createdAt,value
2019-01-09T00:00:10.353Z,24.97
2019-01-09T00:02:39.032Z,24.10
2019-01-09T00:05:07.771Z,23.23
2019-01-09T00:07:36.398Z,23.20
2019-01-09T00:10:05.777Z,22.50
2019-01-09T00:12:34.410Z,24.43
2019-01-09T00:15:04.424Z,22.80
2019-01-09T00:17:33.397Z,21.17
2019-01-09T00:20:02.046Z,21.70
2019-01-09T00:22:30.682Z,21.93
2019-01-09T00:24:59.352Z,23.07
2019-01-09T00:27:28.003Z,23.67
2019-01-09T00:29:56.625Z,22.07
2019-01-09T00:32:25.301Z,22.00
2019-01-09T00:34:53.958Z,21.60
2019-01-09T00:37:22.606Z,23.00
2019-01-09T00:39:51.284Z,22.77
2019-01-09T00:42:20.019Z,19.77
2019-01-09T00:44:48.641Z,19.80
2019-01-09T00:47:17.516Z,19.23
2019-01-09T00:49:46.155Z,18.43
2019-01-09T00:52:14.791Z,18.53
2019-01-09T00:54:43.504Z,18.83
2019-01-09T00:57:12.141Z,18.80
2019-01-09T00:59:40.789Z,19.27
2019-01-09T01:02:31.548Z,21.97
2019-01-09T01:05:22.471Z,23.03
2019-01-09T01:08:19.505Z,23.30
2019-01-09T01:11:15.396Z,22.10
2019-01-09T01:13:56.209Z,24.13
2019-01-09T01:16:46.053Z,26.10
2019-01-09T01:19:26.504Z,23.30
2019-01-09T01:21:58.381Z,21.10
2019-01-09T01:24:38.278Z,20.90
2019-01-09T01:27:25.099Z,20.20
2019-01-09T01:30:31.833Z,16.97
2019-01-09T01:33:12.304Z,16.87
2019-01-09T01:35:43.838Z,17.30
2019-01-09T01:38:34.424Z,18.30
2019-01-09T01:41:40.923Z,19.23
2019-01-09T01:44:12.669Z,16.77
2019-01-09T01:47:02.244Z,16.53
2019-01-09T01:49:36.977Z,16.93
2019-01-09T01:52:25.350Z,17.73
2019-01-09T01:55:08.945Z,17.07
2019-01-09T01:58:01.779Z,17.17
2019-01-09T02:00:36.135Z,17.93
2019-01-09T02:03:32.160Z,17.93
2019-01-09T02:06:30.634Z,18.50
2019-01-09T02:09:35.575Z,18.00
2019-01-09T02:12:25.065Z,17.77
2019-01-09T02:15:21.186Z,18.57
2019-01-09T02:17:55.558Z,19.30
2019-01-09T02:20:36.355Z,17.70
2019-01-09T02:23:25.585Z,16.30
2019-01-09T02:25:57.250Z,18.37
2019-01-09T02:28:45.255Z,18.20
2019-01-09T02:31:35.094Z,19.43
2019-01-09T02:34:03.722Z,18.70
2019-01-09T02:36:32.274Z,19.03
2019-01-09T02:39:01.045Z,19.03
2019-01-09T02:41:29.683Z,18.03
2019-01-09T02:43:58.232Z,19.63
2019-01-09T02:46:26.836Z,18.70
2019-01-09T02:48:55.400Z,20.00
2019-01-09T02:51:24.034Z,21.07
2019-01-09T02:53:52.724Z,20.00
2019-01-09T02:56:21.288Z,19.90
2019-01-09T02:58:49.855Z,19.27
2019-01-09T03:01:18.525Z,18.93
2019-01-09T03:03:47.085Z,18.47
2019-01-09T03:06:22.912Z,17.97
2019-01-09T03:08:46.358Z,18.63
2019-01-09T03:11:18.105Z,19.33
2019-01-09T03:13:46.875Z,19.63
2019-01-09T03:16:15.427Z,19.73
2019-01-09T03:18:44.065Z,18.63
2019-01-09T03:21:12.703Z,19.63
2019-01-09T03:23:41.398Z,19.27
2019-01-09T03:26:10.033Z,20.17
2019-01-09T03:28:38.671Z,17.30
2019-01-09T03:31:07.352Z,18.30
2019-01-09T03:33:35.913Z,14.87
2019-01-09T03:36:04.545Z,19.60
2019-01-09T03:38:33.213Z,18.30
2019-01-09T03:41:01.784Z,19.03
2019-01-09T03:43:30.415Z,17.93
2019-01-09T03:45:59.090Z,14.70
2019-01-09T03:48:27.708Z,20.07
2019-01-09T03:50:56.200Z,18.07
2019-01-09T03:53:25.112Z,19.73
2019-01-09T03:55:53.672Z,18.20
2019-01-09T03:58:22.300Z,18.47
2019-01-09T04:00:50.969Z,16.63
2019-01-09T04:03:19.524Z,14.67
2019-01-09T04:05:48.090Z,17.33
2019-01-09T04:08:17.005Z,15.50
2019-01-09T04:10:45.629Z,17.63
2019-01-09T04:13:14.274Z,17.27
2019-01-09T04:15:43.021Z,17.73
2019-01-09T04:18:11.593Z,18.07
2019-01-09T04:20:40.211Z,19.33
2019-01-09T04:23:08.871Z,19.00
2019-01-09T04:25:37.377Z,19.93
2019-01-09T04:28:06.001Z,19.00
2019-01-09T04:30:34.641Z,19.97
2019-01-09T04:33:03.513Z,19.67
2019-01-09T04:35:32.091Z,19.43
2019-01-09T04:38:00.736Z,19.20
2019-01-09T04:40:29.267Z,19.73
2019-01-09T04:42:57.908Z,19.27
2019-01-09T04:45:26.547Z,18.73
2019-01-09T04:47:55.357Z,19.13
2019-01-09T04:50:23.848Z,18.80
2019-01-09T04:52:52.416Z,18.13
2019-01-09T04:55:21.087Z,19.33
2019-01-09T04:57:49.649Z,19.43
2019-01-09T05:00:18.217Z,18.77
2019-01-09T05:02:47.048Z,24.60
2019-01-09T05:05:15.681Z,19.50
2019-01-09T05:07:44.251Z,19.17
2019-01-09T05:10:12.844Z,19.93
2019-01-09T05:12:41.407Z,18.53
2019-01-09T05:15:10.029Z,19.63
2019-01-09T05:17:38.635Z,19.73
2019-01-09T05:20:07.286Z,17.73
2019-01-09T05:22:35.916Z,18.20
2019-01-09T05:25:04.698Z,18.40
2019-01-09T05:27:33.256Z,22.27
2019-01-09T05:30:01.892Z,17.67
2019-01-09T05:32:30.573Z,18.77
2019-01-09T05:34:59.062Z,18.20
2019-01-09T05:37:27.629Z,17.20
2019-01-09T05:39:56.304Z,20.00
2019-01-09T05:42:24.925Z,21.00
2019-01-09T05:44:53.488Z,18.20
2019-01-09T05:47:22.172Z,22.33
2019-01-09T05:49:50.813Z,18.20
2019-01-09T05:52:19.445Z,17.87
2019-01-09T05:54:48.068Z,15.43
2019-01-09T05:57:16.714Z,17.87
2019-01-09T05:59:45.291Z,19.13
2019-01-09T06:02:13.974Z,18.37
2019-01-09T06:04:42.614Z,18.63
2019-01-09T06:07:18.296Z,18.57
2019-01-09T06:09:41.591Z,19.10
2019-01-09T06:12:10.164Z,19.23
2019-01-09T06:14:38.781Z,19.00
2019-01-09T06:17:07.437Z,19.13
2019-01-09T06:19:36.046Z,19.43
2019-01-09T06:22:04.623Z,17.23
2019-01-09T06:24:33.296Z,18.27
2019-01-09T06:27:01.859Z,19.33
2019-01-09T06:29:30.503Z,19.17
2019-01-09T06:31:59.306Z,19.87
2019-01-09T06:34:27.863Z,17.73
2019-01-09T06:36:56.457Z,18.37
2019-01-09T06:39:25.127Z,24.90
2019-01-09T06:41:53.819Z,21.63
2019-01-09T06:44:22.845Z,19.77
2019-01-09T06:46:51.815Z,18.57
2019-01-09T06:49:20.429Z,19.27
2019-01-09T06:51:48.998Z,19.93
2019-01-09T06:54:17.807Z,20.00
2019-01-09T06:56:46.413Z,19.43
2019-01-09T06:59:15.042Z,20.87
2019-01-09T07:01:43.717Z,17.80
2019-01-09T07:04:12.197Z,18.33
2019-01-09T07:06:40.765Z,15.87
2019-01-09T07:09:09.692Z,18.37
2019-01-09T07:11:38.312Z,17.50
2019-01-09T07:14:06.904Z,20.80
2019-01-09T07:16:35.576Z,26.33
2019-01-09T07:19:04.205Z,24.03
2019-01-09T07:21:32.834Z,24.80
2019-01-09T07:24:01.713Z,14.73
2019-01-09T07:26:30.363Z,25.17
2019-01-09T07:28:58.914Z,31.60
2019-01-09T07:31:27.758Z,27.77
2019-01-09T07:33:56.409Z,34.77
2019-01-09T07:36:24.980Z,27.40
2019-01-09T07:38:53.824Z,29.25
2019-01-09T07:41:22.391Z,41.13
2019-01-09T07:43:51.007Z,31.42
2019-01-09T07:46:19.690Z,25.83
2019-01-09T07:48:48.246Z,21.93
2019-01-09T07:51:16.877Z,19.77
2019-01-09T07:53:45.726Z,20.53
2019-01-09T07:56:14.383Z,19.77
2019-01-09T07:58:42.932Z,22.80
2019-01-09T08:01:11.609Z,22.63
2019-01-09T08:03:40.272Z,22.83
2019-01-09T08:06:08.902Z,22.43
2019-01-09T08:08:37.551Z,47.80
2019-01-09T08:11:06.150Z,50.60
2019-01-09T08:13:34.787Z,49.20
2019-01-09T08:16:03.485Z,47.77
2019-01-09T08:18:32.282Z,49.43
2019-01-09T08:21:05.416Z,50.50
2019-01-09T08:23:38.033Z,46.90
2019-01-09T08:26:06.717Z,49.93
2019-01-09T08:28:35.214Z,44.87
2019-01-09T08:31:03.958Z,34.27
2019-01-09T08:33:32.888Z,41.43
2019-01-09T08:36:01.520Z,40.30
2019-01-09T08:38:30.160Z,36.53
2019-01-09T08:40:59.027Z,34.20
2019-01-09T08:43:27.590Z,35.97
2019-01-09T08:45:56.150Z,34.07
2019-01-09T08:48:24.813Z,31.00
2019-01-09T08:50:53.442Z,34.03
2019-01-09T08:53:21.992Z,31.93
2019-01-09T08:55:50.590Z,33.17
2019-01-09T08:58:19.232Z,34.73
2019-01-09T09:00:47.867Z,34.77
2019-01-09T09:03:16.460Z,30.63
2019-01-09T09:05:45.098Z,31.50
2019-01-09T09:08:14.035Z,32.87
2019-01-09T09:10:42.963Z,33.27
2019-01-09T09:13:14.508Z,32.20
2019-01-09T09:15:43.135Z,31.60
2019-01-09T09:18:11.803Z,32.47
2019-01-09T09:20:40.429Z,31.07
2019-01-09T09:23:09.075Z,29.30
2019-01-09T09:25:37.672Z,32.00
2019-01-09T09:28:06.253Z,32.73
2019-01-09T09:30:34.815Z,34.20
2019-01-09T09:33:03.506Z,30.87
2019-01-09T09:35:32.145Z,29.97
2019-01-09T09:38:00.630Z,29.57
2019-01-09T09:40:29.305Z,30.43
2019-01-09T09:42:57.941Z,30.27
2019-01-09T09:45:32.496Z,29.13
2019-01-09T09:48:01.103Z,31.93
2019-01-09T09:50:29.668Z,29.73
2019-01-09T09:52:58.238Z,30.30
2019-01-09T09:55:26.870Z,32.77
2019-01-09T09:57:55.528Z,33.43
2019-01-09T10:00:24.148Z,30.07
2019-01-09T10:02:52.906Z,32.20
2019-01-09T10:05:21.534Z,31.47
2019-01-09T10:07:50.172Z,29.70
2019-01-09T10:10:18.831Z,32.73
2019-01-09T10:12:47.477Z,33.60
2019-01-09T10:15:17.219Z,36.40
2019-01-09T10:17:45.894Z,39.70
2019-01-09T10:20:16.432Z,39.27
2019-01-09T10:22:46.170Z,39.93
2019-01-09T10:25:14.778Z,38.57
2019-01-09T10:27:43.420Z,35.70
2019-01-09T10:30:17.436Z,33.37
2019-01-09T10:32:46.159Z,36.00
2019-01-09T10:35:15.096Z,33.83
2019-01-09T10:37:44.934Z,34.90
2019-01-09T10:40:16.169Z,36.20
2019-01-09T10:42:44.796Z,37.07
2019-01-09T10:45:16.204Z,36.83
2019-01-09T10:47:45.136Z,37.03
2019-01-09T10:50:15.900Z,33.37
2019-01-09T10:52:44.561Z,33.50
2019-01-09T10:55:15.687Z,34.13
2019-01-09T10:57:44.308Z,34.83
2019-01-09T11:00:19.068Z,33.97
2019-01-09T11:02:47.759Z,34.43
2019-01-09T11:05:16.814Z,34.37
2019-01-09T11:07:45.524Z,33.50
2019-01-09T11:10:16.981Z,35.27
2019-01-09T11:12:54.566Z,33.77
2019-01-09T11:15:23.237Z,32.07
2019-01-09T11:17:51.865Z,32.23
2019-01-09T11:20:21.598Z,31.87
2019-01-09T11:22:50.462Z,34.83
2019-01-09T11:25:24.648Z,32.20
2019-01-09T11:27:53.497Z,33.33
2019-01-09T11:30:22.178Z,29.07
2019-01-09T11:32:50.738Z,32.33
2019-01-09T11:35:21.773Z,30.37
2019-01-09T11:37:50.451Z,30.27
2019-01-09T11:40:20.285Z,35.93
2019-01-09T11:42:48.782Z,35.27
2019-01-09T11:45:19.761Z,32.97
2019-01-09T11:47:48.791Z,26.67
2019-01-09T11:50:18.016Z,24.63
2019-01-09T11:52:47.007Z,17.17
2019-01-09T11:55:16.247Z,16.33
2019-01-09T11:57:44.817Z,15.83
2019-01-09T12:00:24.791Z,16.23
2019-01-09T12:02:53.429Z,18.83
2019-01-09T12:05:22.089Z,21.17
2019-01-09T12:07:50.865Z,19.20
2019-01-09T12:10:29.490Z,20.33
2019-01-09T12:12:51.945Z,19.37
2019-01-09T12:15:21.039Z,17.23
2019-01-09T12:17:49.774Z,15.10
2019-01-09T12:20:20.070Z,15.27
2019-01-09T12:22:49.149Z,17.80
2019-01-09T12:25:18.092Z,17.83
2019-01-09T12:27:46.927Z,19.73
2019-01-09T12:30:21.284Z,21.33
2019-01-09T12:32:49.854Z,18.73
2019-01-09T12:35:18.486Z,18.77
2019-01-09T12:37:47.406Z,23.73
2019-01-09T12:40:30.563Z,21.07
2019-01-09T12:42:46.592Z,22.53
2019-01-09T12:45:18.334Z,21.07
2019-01-09T12:47:47.095Z,23.70
2019-01-09T12:50:21.143Z,22.10
2019-01-09T12:52:49.744Z,23.20
2019-01-09T12:55:18.369Z,24.27
2019-01-09T12:57:46.994Z,23.30
2019-01-09T13:00:24.346Z,23.83
2019-01-09T13:02:53.073Z,25.70
2019-01-09T13:05:22.199Z,23.43
2019-01-09T13:07:50.894Z,23.03
2019-01-09T13:10:19.538Z,23.97
2019-01-09T13:12:48.172Z,21.30
2019-01-09T13:15:16.841Z,19.77
2019-01-09T13:17:45.478Z,19.10
2019-01-09T13:20:15.712Z,16.80
2019-01-09T13:22:44.316Z,17.60
2019-01-09T13:25:15.293Z,17.70
2019-01-09T13:27:44.543Z,16.27
2019-01-09T13:30:19.042Z,10.03
2019-01-09T13:32:47.690Z,7.83
2019-01-09T13:35:17.228Z,11.93
2019-01-09T13:37:46.008Z,12.63
2019-01-09T13:40:16.439Z,11.47
2019-01-09T13:42:45.074Z,7.00
2019-01-09T13:45:16.338Z,11.60
2019-01-09T13:47:45.161Z,8.87
2019-01-09T13:50:15.704Z,3.97
2019-01-09T13:52:44.563Z,10.87
2019-01-09T13:55:14.898Z,12.57
2019-01-09T13:57:43.541Z,10.50
2019-01-09T14:00:17.491Z,12.57
2019-01-09T14:02:46.126Z,7.53
2019-01-09T14:05:14.960Z,15.87
2019-01-09T14:07:43.637Z,15.23
2019-01-09T14:10:14.757Z,9.47
2019-01-09T14:12:43.396Z,13.20
2019-01-09T14:15:15.376Z,14.03
2019-01-09T14:17:43.945Z,14.10
2019-01-09T14:20:13.383Z,17.93
2019-01-09T14:22:42.092Z,16.77
2019-01-09T14:25:12.640Z,14.67
2019-01-09T14:27:41.274Z,16.63
2019-01-09T14:30:18.653Z,15.17
2019-01-09T14:32:47.277Z,18.27
2019-01-09T14:35:17.520Z,16.83
2019-01-09T14:37:46.226Z,18.73
2019-01-09T14:40:19.704Z,11.97
2019-01-09T14:42:48.268Z,15.27
2019-01-09T14:45:17.646Z,14.60
2019-01-09T14:47:46.283Z,12.97
2019-01-09T14:50:17.753Z,11.73
2019-01-09T14:52:46.444Z,12.00
2019-01-09T14:55:15.471Z,9.97
2019-01-09T14:57:50.931Z,13.10
2019-01-09T15:00:27.401Z,3.73
2019-01-09T15:02:55.965Z,8.70
2019-01-09T15:05:24.691Z,9.97
2019-01-09T15:07:53.362Z,9.80
2019-01-09T15:10:27.091Z,7.43
2019-01-09T15:12:55.915Z,5.60
2019-01-09T15:15:24.592Z,9.00
2019-01-09T15:17:53.225Z,3.63
2019-01-09T15:20:21.860Z,3.10
2019-01-09T15:22:50.537Z,6.87
2019-01-09T15:25:19.480Z,7.53
2019-01-09T15:27:48.135Z,9.47
2019-01-09T15:30:25.394Z,3.83
2019-01-09T15:32:54.039Z,2.83
2019-01-09T15:35:22.668Z,8.10
2019-01-09T15:37:51.564Z,7.63
2019-01-09T15:40:25.953Z,8.13
2019-01-09T15:42:54.583Z,7.13
2019-01-09T15:45:23.266Z,5.13
2019-01-09T15:47:51.907Z,7.60
2019-01-09T15:50:22.650Z,7.73
2019-01-09T15:52:51.475Z,7.87
2019-01-09T15:55:20.295Z,9.57
2019-01-09T15:57:51.026Z,6.00
2019-01-09T16:00:22.610Z,5.47
2019-01-09T16:02:51.249Z,2.70
2019-01-09T16:05:19.882Z,5.23
2019-01-09T16:07:48.752Z,6.23
2019-01-09T16:10:19.976Z,1.37
2019-01-09T16:12:48.609Z,7.23
2019-01-09T16:15:18.389Z,8.67
2019-01-09T16:17:47.020Z,2.83
2019-01-09T16:20:20.631Z,6.03
2019-01-09T16:22:49.524Z,7.13
2019-01-09T16:25:18.246Z,7.43
2019-01-09T16:27:46.882Z,7.50
2019-01-09T16:30:18.935Z,7.33
2019-01-09T16:32:47.561Z,6.53
2019-01-09T16:35:16.201Z,7.97
2019-01-09T16:37:44.989Z,10.23
2019-01-09T16:40:23.044Z,7.30
2019-01-09T16:42:45.553Z,11.13
2019-01-09T16:45:15.338Z,8.40
2019-01-09T16:47:43.984Z,11.70
2019-01-09T16:50:15.794Z,9.80
2019-01-09T16:52:44.696Z,7.10
2019-01-09T16:55:13.416Z,7.67
2019-01-09T16:57:42.526Z,9.63
2019-01-09T17:00:16.803Z,6.27
2019-01-09T17:02:45.428Z,10.50
2019-01-09T17:05:14.335Z,9.07
2019-01-09T17:07:43.336Z,9.43
2019-01-09T17:10:14.911Z,8.30
2019-01-09T17:12:43.561Z,9.63
2019-01-09T17:15:15.133Z,10.73
2019-01-09T17:17:43.764Z,4.67
2019-01-09T17:20:18.102Z,4.97
2019-01-09T17:22:47.696Z,5.43
2019-01-09T17:25:16.220Z,7.13
2019-01-09T17:27:44.836Z,8.30
2019-01-09T17:30:19.335Z,4.10
2019-01-09T17:32:47.977Z,4.73
2019-01-09T17:35:16.595Z,8.13
2019-01-09T17:37:45.257Z,4.00
2019-01-09T17:40:18.592Z,7.27
2019-01-09T17:42:47.729Z,7.27
2019-01-09T17:45:16.557Z,8.87
2019-01-09T17:47:45.196Z,6.27
2019-01-09T17:50:22.588Z,5.33
2019-01-09T17:52:51.213Z,6.43
2019-01-09T17:55:19.834Z,6.33
2019-01-09T17:57:55.534Z,3.40
2019-01-09T18:00:35.619Z,6.13
2019-01-09T18:03:04.481Z,8.37
2019-01-09T18:05:33.122Z,3.90
2019-01-09T18:08:10.147Z,4.53
2019-01-09T18:10:32.132Z,7.63
2019-01-09T18:13:00.756Z,4.83
2019-01-09T18:15:29.376Z,5.33
2019-01-09T18:17:58.154Z,7.37
2019-01-09T18:20:26.784Z,12.10
2019-01-09T18:22:55.410Z,9.67
2019-01-09T18:25:26.375Z,12.03
2019-01-09T18:27:55.004Z,13.57
2019-01-09T18:30:27.299Z,9.50
2019-01-09T18:32:58.849Z,9.83
2019-01-09T18:35:36.031Z,11.27
2019-01-09T18:38:15.856Z,2.80
2019-01-09T18:40:48.957Z,3.03
2019-01-09T18:43:29.527Z,4.13
2019-01-09T18:46:01.075Z,4.03
2019-01-09T18:48:41.282Z,8.53
2019-01-09T18:51:29.568Z,7.70
2019-01-09T18:53:58.101Z,12.07
2019-01-09T18:56:26.746Z,5.97
2019-01-09T18:58:55.453Z,9.93
2019-01-09T19:01:24.502Z,10.53
2019-01-09T19:03:59.051Z,9.17
2019-01-09T19:06:35.151Z,8.87
2019-01-09T19:08:58.199Z,10.40
2019-01-09T19:11:26.756Z,4.50
2019-01-09T19:13:55.396Z,5.23
2019-01-09T19:16:23.991Z,8.63
2019-01-09T19:18:54.232Z,6.87
2019-01-09T19:21:23.251Z,7.10
2019-01-09T19:23:51.931Z,10.90
2019-01-09T19:26:20.567Z,11.93
2019-01-09T19:28:49.217Z,10.23
2019-01-09T19:31:18.120Z,11.13
2019-01-09T19:33:46.760Z,13.13
2019-01-09T19:36:15.404Z,15.53
2019-01-09T19:38:44.009Z,14.03
2019-01-09T19:41:17.208Z,14.77
2019-01-09T19:43:43.011Z,14.17
2019-01-09T19:46:11.679Z,15.23
2019-01-09T19:48:40.320Z,14.73
2019-01-09T19:51:17.330Z,12.77
2019-01-09T19:53:40.348Z,14.53
2019-01-09T19:56:09.034Z,14.23
2019-01-09T19:58:38.545Z,15.93
2019-01-09T20:01:07.229Z,8.30
2019-01-09T20:03:35.858Z,10.37
2019-01-09T20:06:05.199Z,13.03
2019-01-09T20:08:33.979Z,12.93
2019-01-09T20:11:02.768Z,15.53
2019-01-09T20:13:31.494Z,7.40
2019-01-09T20:16:00.246Z,18.17
2019-01-09T20:18:29.009Z,16.00
2019-01-09T20:20:57.636Z,16.77
2019-01-09T20:23:26.423Z,18.23
2019-01-09T20:25:55.076Z,18.30
2019-01-09T20:28:23.758Z,19.00
2019-01-09T20:30:52.446Z,19.63
2019-01-09T20:33:21.196Z,23.83
2019-01-09T20:35:49.762Z,22.73
2019-01-09T20:38:18.619Z,26.13
2019-01-09T20:40:47.264Z,22.50
2019-01-09T20:43:15.950Z,23.30
2019-01-09T20:45:44.584Z,18.93
2019-01-09T20:48:13.215Z,25.60
2019-01-09T20:50:41.861Z,23.43
2019-01-09T20:53:10.681Z,22.87
2019-01-09T20:55:39.190Z,16.87
2019-01-09T20:58:08.046Z,20.53
2019-01-09T21:00:36.691Z,22.60
2019-01-09T21:03:05.734Z,24.30
2019-01-09T21:05:39.466Z,22.40
2019-01-09T21:08:08.591Z,22.63
2019-01-09T21:10:37.196Z,23.70
2019-01-09T21:13:06.240Z,18.07
2019-01-09T21:15:35.447Z,13.43
2019-01-09T21:18:04.179Z,20.20
2019-01-09T21:20:32.829Z,11.50
2019-01-09T21:23:01.508Z,17.17
2019-01-09T21:25:30.151Z,19.40
2019-01-09T21:27:58.787Z,18.50
2019-01-09T21:30:27.460Z,15.20
2019-01-09T21:32:56.628Z,16.40
2019-01-09T21:35:25.252Z,23.30
2019-01-09T21:37:54.128Z,22.47
2019-01-09T21:40:27.974Z,21.90
2019-01-09T21:42:56.618Z,23.17
2019-01-09T21:45:25.626Z,20.43
2019-01-09T21:47:54.552Z,21.37
2019-01-09T21:50:25.369Z,24.10
2019-01-09T21:52:54.148Z,23.13
2019-01-09T21:55:23.088Z,23.57
2019-01-09T21:57:51.673Z,24.93
2019-01-09T22:00:25.529Z,24.90
2019-01-09T22:02:54.267Z,25.30
2019-01-09T22:05:23.887Z,24.63
2019-01-09T22:07:52.859Z,28.53
2019-01-09T22:10:24.245Z,26.10
2019-01-09T22:12:53.075Z,32.17
2019-01-09T22:15:28.184Z,27.00
2019-01-09T22:17:56.935Z,29.63
2019-01-09T22:20:25.605Z,33.47
2019-01-09T22:22:54.283Z,28.70
2019-01-09T22:25:23.181Z,30.27
2019-01-09T22:27:51.755Z,32.00
2019-01-09T22:30:25.674Z,33.63
2019-01-09T22:32:54.421Z,36.80
2019-01-09T22:35:23.264Z,33.90
2019-01-09T22:37:51.943Z,35.33
2019-01-09T22:40:21.768Z,34.67
2019-01-09T22:42:50.512Z,34.87
2019-01-09T22:45:19.597Z,34.53
2019-01-09T22:47:48.242Z,31.90
2019-01-09T22:50:19.285Z,33.00
2019-01-09T22:52:47.962Z,36.33
2019-01-09T22:55:16.600Z,34.40
2019-01-09T22:57:45.254Z,24.90
2019-01-09T23:00:19.404Z,33.33
2019-01-09T23:02:48.051Z,32.07
2019-01-09T23:05:16.787Z,34.23
2019-01-09T23:07:46.712Z,33.93
2019-01-09T23:10:15.578Z,27.90
2019-01-09T23:12:44.218Z,32.30
2019-01-09T23:15:12.996Z,33.63
2019-01-09T23:17:41.658Z,30.97
2019-01-09T23:20:13.110Z,33.17
2019-01-09T23:22:41.794Z,36.07
2019-01-09T23:25:10.531Z,30.77
2019-01-09T23:27:39.089Z,35.03
2019-01-09T23:30:12.006Z,39.57
2019-01-09T23:32:40.748Z,37.47
2019-01-09T23:35:11.602Z,36.33
2019-01-09T23:37:40.503Z,34.03
2019-01-09T23:40:11.946Z,39.80
2019-01-09T23:42:40.674Z,39.30
2019-01-09T23:45:11.338Z,41.97
2019-01-09T23:47:39.974Z,40.37
2019-01-09T23:50:10.519Z,37.87
2019-01-09T23:52:39.184Z,31.80
2019-01-09T23:55:10.355Z,31.90
2019-01-09T23:57:38.855Z,33.57
